sensor_id;sensor_type;location;lat;lon;timestamp;P1;durP1;ratioP1;P2;durP2;ratioP2
16153;SDS011;8182;55.648;13.208;2023-09-19T00:02:13;8.83;;;5.00;;
16153;SDS011;8182;55.648;13.208;2023-09-19T00:04:40;8.20;;;5.10;;
16153;SDS011;8182;55.648;13.208;2023-09-19T00:07:08;6.50;;;5.17;;
16153;SDS011;8182;55.648;13.208;2023-09-19T00:09:35;8.97;;;5.03;;
16153;SDS011;8182;55.648;13.208;2023-09-19T00:12:03;7.70;;;4.63;;
16153;SDS011;8182;55.648;13.208;2023-09-19T00:14:31;8.97;;;5.13;;
16153;SDS011;8182;55.648;13.208;2023-09-19T00:16:59;9.20;;;4.77;;
16153;SDS011;8182;55.648;13.208;2023-09-19T00:19:32;8.57;;;5.00;;
16153;SDS011;8182;55.648;13.208;2023-09-19T00:21:59;7.37;;;4.97;;
16153;SDS011;8182;55.648;13.208;2023-09-19T00:24:26;7.57;;;4.60;;
16153;SDS011;8182;55.648;13.208;2023-09-19T00:26:54;6.70;;;4.50;;
16153;SDS011;8182;55.648;13.208;2023-09-19T00:29:21;7.50;;;4.20;;
16153;SDS011;8182;55.648;13.208;2023-09-19T00:31:52;6.50;;;4.33;;
16153;SDS011;8182;55.648;13.208;2023-09-19T00:34:19;8.80;;;5.03;;
16153;SDS011;8182;55.648;13.208;2023-09-19T00:36:47;9.03;;;4.10;;
16153;SDS011;8182;55.648;13.208;2023-09-19T00:39:14;6.47;;;4.40;;
16153;SDS011;8182;55.648;13.208;2023-09-19T00:41:41;7.60;;;4.30;;
16153;SDS011;8182;55.648;13.208;2023-09-19T00:44:09;9.33;;;4.40;;
16153;SDS011;8182;55.648;13.208;2023-09-19T00:46:37;5.43;;;4.10;;
16153;SDS011;8182;55.648;13.208;2023-09-19T00:49:04;6.60;;;4.07;;
16153;SDS011;8182;55.648;13.208;2023-09-19T00:51:34;6.97;;;4.03;;
16153;SDS011;8182;55.648;13.208;2023-09-19T00:54:03;7.07;;;4.40;;
16153;SDS011;8182;55.648;13.208;2023-09-19T00:56:30;10.57;;;3.90;;
16153;SDS011;8182;55.648;13.208;2023-09-19T00:58:57;6.23;;;4.03;;
16153;SDS011;8182;55.648;13.208;2023-09-19T01:01:25;9.33;;;4.37;;
16153;SDS011;8182;55.648;13.208;2023-09-19T01:03:52;8.90;;;4.20;;
16153;SDS011;8182;55.648;13.208;2023-09-19T01:06:19;6.53;;;4.40;;
16153;SDS011;8182;55.648;13.208;2023-09-19T01:08:47;11.87;;;4.60;;
16153;SDS011;8182;55.648;13.208;2023-09-19T01:11:17;6.37;;;3.67;;
16153;SDS011;8182;55.648;13.208;2023-09-19T01:13:52;7.70;;;4.00;;
16153;SDS011;8182;55.648;13.208;2023-09-19T01:16:28;6.50;;;3.90;;
16153;SDS011;8182;55.648;13.208;2023-09-19T01:19:07;5.00;;;3.90;;
16153;SDS011;8182;55.648;13.208;2023-09-19T01:22:11;9.17;;;4.60;;
16153;SDS011;8182;55.648;13.208;2023-09-19T01:24:54;7.07;;;4.03;;
16153;SDS011;8182;55.648;13.208;2023-09-19T01:28:00;8.30;;;3.80;;
16153;SDS011;8182;55.648;13.208;2023-09-19T01:30:43;10.50;;;4.23;;
16153;SDS011;8182;55.648;13.208;2023-09-19T01:33:12;7.23;;;4.10;;
16153;SDS011;8182;55.648;13.208;2023-09-19T01:35:40;5.07;;;3.80;;
16153;SDS011;8182;55.648;13.208;2023-09-19T01:38:07;6.47;;;3.60;;
16153;SDS011;8182;55.648;13.208;2023-09-19T01:40:38;7.83;;;3.83;;
16153;SDS011;8182;55.648;13.208;2023-09-19T01:43:16;7.30;;;3.67;;
16153;SDS011;8182;55.648;13.208;2023-09-19T01:45:51;5.87;;;3.80;;
16153;SDS011;8182;55.648;13.208;2023-09-19T01:48:24;5.50;;;3.50;;
16153;SDS011;8182;55.648;13.208;2023-09-19T01:51:00;10.20;;;3.97;;
16153;SDS011;8182;55.648;13.208;2023-09-19T01:53:30;5.00;;;3.53;;
16153;SDS011;8182;55.648;13.208;2023-09-19T01:56:01;5.67;;;3.50;;
16153;SDS011;8182;55.648;13.208;2023-09-19T01:58:33;7.00;;;3.50;;
16153;SDS011;8182;55.648;13.208;2023-09-19T02:01:05;5.50;;;3.23;;
16153;SDS011;8182;55.648;13.208;2023-09-19T02:03:34;8.20;;;3.23;;
16153;SDS011;8182;55.648;13.208;2023-09-19T02:06:03;7.23;;;3.20;;
16153;SDS011;8182;55.648;13.208;2023-09-19T02:08:36;7.40;;;3.13;;
16153;SDS011;8182;55.648;13.208;2023-09-19T02:11:06;8.47;;;3.50;;
16153;SDS011;8182;55.648;13.208;2023-09-19T02:13:33;4.47;;;2.97;;
16153;SDS011;8182;55.648;13.208;2023-09-19T02:16:00;6.37;;;2.93;;
16153;SDS011;8182;55.648;13.208;2023-09-19T02:18:30;5.10;;;2.83;;
16153;SDS011;8182;55.648;13.208;2023-09-19T02:21:00;4.60;;;2.60;;
16153;SDS011;8182;55.648;13.208;2023-09-19T02:23:27;6.60;;;3.00;;
16153;SDS011;8182;55.648;13.208;2023-09-19T02:25:55;6.57;;;2.40;;
16153;SDS011;8182;55.648;13.208;2023-09-19T02:28:23;4.17;;;2.20;;
16153;SDS011;8182;55.648;13.208;2023-09-19T02:30:55;5.50;;;2.10;;
16153;SDS011;8182;55.648;13.208;2023-09-19T02:33:22;3.77;;;2.00;;
16153;SDS011;8182;55.648;13.208;2023-09-19T02:35:53;3.87;;;2.10;;
16153;SDS011;8182;55.648;13.208;2023-09-19T02:38:22;4.30;;;1.90;;
16153;SDS011;8182;55.648;13.208;2023-09-19T02:40:50;4.30;;;1.60;;
16153;SDS011;8182;55.648;13.208;2023-09-19T02:43:17;4.30;;;1.73;;
16153;SDS011;8182;55.648;13.208;2023-09-19T02:45:45;2.57;;;1.60;;
16153;SDS011;8182;55.648;13.208;2023-09-19T02:48:15;4.03;;;1.33;;
16153;SDS011;8182;55.648;13.208;2023-09-19T02:50:42;3.57;;;1.60;;
16153;SDS011;8182;55.648;13.208;2023-09-19T02:53:10;1.90;;;1.40;;
16153;SDS011;8182;55.648;13.208;2023-09-19T02:55:38;2.27;;;1.50;;
16153;SDS011;8182;55.648;13.208;2023-09-19T02:58:08;2.97;;;1.87;;
16153;SDS011;8182;55.648;13.208;2023-09-19T03:00:36;4.57;;;1.70;;
16153;SDS011;8182;55.648;13.208;2023-09-19T03:03:04;4.47;;;1.80;;
16153;SDS011;8182;55.648;13.208;2023-09-19T03:05:33;4.53;;;1.60;;
16153;SDS011;8182;55.648;13.208;2023-09-19T03:08:00;4.37;;;1.70;;
16153;SDS011;8182;55.648;13.208;2023-09-19T03:10:29;5.67;;;1.73;;
16153;SDS011;8182;55.648;13.208;2023-09-19T03:12:56;5.40;;;1.80;;
16153;SDS011;8182;55.648;13.208;2023-09-19T03:15:25;4.17;;;2.20;;
16153;SDS011;8182;55.648;13.208;2023-09-19T03:17:51;3.23;;;1.70;;
16153;SDS011;8182;55.648;13.208;2023-09-19T03:20:19;5.77;;;2.20;;
16153;SDS011;8182;55.648;13.208;2023-09-19T03:22:46;4.90;;;2.00;;
16153;SDS011;8182;55.648;13.208;2023-09-19T03:25:14;4.80;;;1.90;;
16153;SDS011;8182;55.648;13.208;2023-09-19T03:27:43;4.27;;;2.07;;
16153;SDS011;8182;55.648;13.208;2023-09-19T03:30:10;4.73;;;1.90;;
16153;SDS011;8182;55.648;13.208;2023-09-19T03:32:43;5.80;;;1.90;;
16153;SDS011;8182;55.648;13.208;2023-09-19T03:35:11;4.03;;;1.93;;
16153;SDS011;8182;55.648;13.208;2023-09-19T03:37:39;6.50;;;1.87;;
16153;SDS011;8182;55.648;13.208;2023-09-19T03:40:07;4.70;;;1.90;;
16153;SDS011;8182;55.648;13.208;2023-09-19T03:42:37;6.83;;;2.07;;
16153;SDS011;8182;55.648;13.208;2023-09-19T03:45:06;4.80;;;2.10;;
16153;SDS011;8182;55.648;13.208;2023-09-19T03:47:37;3.77;;;1.90;;
16153;SDS011;8182;55.648;13.208;2023-09-19T03:50:04;4.23;;;2.13;;
16153;SDS011;8182;55.648;13.208;2023-09-19T03:52:33;5.00;;;2.20;;
16153;SDS011;8182;55.648;13.208;2023-09-19T03:55:00;4.73;;;2.30;;
16153;SDS011;8182;55.648;13.208;2023-09-19T03:57:29;5.03;;;1.70;;
16153;SDS011;8182;55.648;13.208;2023-09-19T03:59:57;2.97;;;1.93;;
16153;SDS011;8182;55.648;13.208;2023-09-19T04:02:25;4.57;;;2.00;;
16153;SDS011;8182;55.648;13.208;2023-09-19T04:04:58;5.50;;;2.10;;
16153;SDS011;8182;55.648;13.208;2023-09-19T04:07:25;4.43;;;2.10;;
16153;SDS011;8182;55.648;13.208;2023-09-19T04:09:54;6.17;;;2.40;;
16153;SDS011;8182;55.648;13.208;2023-09-19T04:12:21;6.83;;;1.97;;
16153;SDS011;8182;55.648;13.208;2023-09-19T04:14:48;6.23;;;2.30;;
16153;SDS011;8182;55.648;13.208;2023-09-19T04:17:15;4.93;;;2.10;;
16153;SDS011;8182;55.648;13.208;2023-09-19T04:19:45;5.33;;;1.90;;
16153;SDS011;8182;55.648;13.208;2023-09-19T04:22:12;7.00;;;2.00;;
16153;SDS011;8182;55.648;13.208;2023-09-19T04:24:39;5.27;;;1.77;;
16153;SDS011;8182;55.648;13.208;2023-09-19T04:27:05;3.30;;;1.93;;
16153;SDS011;8182;55.648;13.208;2023-09-19T04:29:33;5.10;;;1.93;;
16153;SDS011;8182;55.648;13.208;2023-09-19T04:32:00;3.60;;;1.90;;
16153;SDS011;8182;55.648;13.208;2023-09-19T04:34:29;4.07;;;2.20;;
16153;SDS011;8182;55.648;13.208;2023-09-19T04:36:57;4.80;;;1.90;;
16153;SDS011;8182;55.648;13.208;2023-09-19T04:39:25;4.83;;;1.83;;
16153;SDS011;8182;55.648;13.208;2023-09-19T04:41:52;5.57;;;2.20;;
16153;SDS011;8182;55.648;13.208;2023-09-19T04:44:20;4.63;;;1.87;;
16153;SDS011;8182;55.648;13.208;2023-09-19T04:46:47;7.03;;;2.10;;
16153;SDS011;8182;55.648;13.208;2023-09-19T04:49:14;5.97;;;2.77;;
16153;SDS011;8182;55.648;13.208;2023-09-19T04:51:41;4.67;;;1.93;;
16153;SDS011;8182;55.648;13.208;2023-09-19T04:54:09;5.40;;;1.87;;
16153;SDS011;8182;55.648;13.208;2023-09-19T04:56:36;5.77;;;2.00;;
16153;SDS011;8182;55.648;13.208;2023-09-19T04:59:05;5.50;;;2.20;;
16153;SDS011;8182;55.648;13.208;2023-09-19T05:01:32;5.78;;;2.20;;
16153;SDS011;8182;55.648;13.208;2023-09-19T05:03:59;5.50;;;2.23;;
16153;SDS011;8182;55.648;13.208;2023-09-19T05:06:26;3.93;;;1.70;;
16153;SDS011;8182;55.648;13.208;2023-09-19T05:08:53;4.37;;;2.13;;
16153;SDS011;8182;55.648;13.208;2023-09-19T05:11:21;5.57;;;2.20;;
16153;SDS011;8182;55.648;13.208;2023-09-19T05:13:49;5.87;;;2.30;;
16153;SDS011;8182;55.648;13.208;2023-09-19T05:16:17;4.63;;;1.90;;
16153;SDS011;8182;55.648;13.208;2023-09-19T05:18:44;5.40;;;1.80;;
16153;SDS011;8182;55.648;13.208;2023-09-19T05:21:11;4.43;;;1.90;;
16153;SDS011;8182;55.648;13.208;2023-09-19T05:23:38;5.63;;;2.20;;
16153;SDS011;8182;55.648;13.208;2023-09-19T05:26:06;5.87;;;1.93;;
16153;SDS011;8182;55.648;13.208;2023-09-19T05:28:34;6.97;;;2.30;;
16153;SDS011;8182;55.648;13.208;2023-09-19T05:31:03;5.57;;;1.80;;
16153;SDS011;8182;55.648;13.208;2023-09-19T05:33:30;8.40;;;2.20;;
16153;SDS011;8182;55.648;13.208;2023-09-19T05:35:58;6.97;;;2.10;;
16153;SDS011;8182;55.648;13.208;2023-09-19T05:38:25;6.63;;;2.00;;
16153;SDS011;8182;55.648;13.208;2023-09-19T05:40:52;8.50;;;2.07;;
16153;SDS011;8182;55.648;13.208;2023-09-19T05:43:19;5.50;;;1.93;;
16153;SDS011;8182;55.648;13.208;2023-09-19T05:45:48;7.33;;;2.17;;
16153;SDS011;8182;55.648;13.208;2023-09-19T05:48:17;8.77;;;2.23;;
16153;SDS011;8182;55.648;13.208;2023-09-19T05:50:46;8.47;;;2.30;;
16153;SDS011;8182;55.648;13.208;2023-09-19T05:53:14;10.67;;;2.93;;
16153;SDS011;8182;55.648;13.208;2023-09-19T05:55:41;10.53;;;2.30;;
16153;SDS011;8182;55.648;13.208;2023-09-19T05:58:08;7.33;;;2.20;;
16153;SDS011;8182;55.648;13.208;2023-09-19T06:00:39;7.33;;;2.17;;
16153;SDS011;8182;55.648;13.208;2023-09-19T06:03:11;13.03;;;2.53;;
16153;SDS011;8182;55.648;13.208;2023-09-19T06:05:39;8.67;;;2.20;;
16153;SDS011;8182;55.648;13.208;2023-09-19T06:08:06;7.87;;;2.30;;
16153;SDS011;8182;55.648;13.208;2023-09-19T06:10:34;8.97;;;2.07;;
16153;SDS011;8182;55.648;13.208;2023-09-19T06:13:01;8.87;;;2.27;;
16153;SDS011;8182;55.648;13.208;2023-09-19T06:15:29;11.50;;;2.47;;
16153;SDS011;8182;55.648;13.208;2023-09-19T06:17:58;12.97;;;2.60;;
16153;SDS011;8182;55.648;13.208;2023-09-19T06:20:28;7.90;;;2.30;;
16153;SDS011;8182;55.648;13.208;2023-09-19T06:22:58;7.70;;;2.20;;
16153;SDS011;8182;55.648;13.208;2023-09-19T06:25:29;9.67;;;2.17;;
16153;SDS011;8182;55.648;13.208;2023-09-19T06:27:56;7.10;;;2.40;;
16153;SDS011;8182;55.648;13.208;2023-09-19T06:30:24;8.63;;;2.50;;
16153;SDS011;8182;55.648;13.208;2023-09-19T06:32:55;9.23;;;1.97;;
16153;SDS011;8182;55.648;13.208;2023-09-19T06:35:22;5.83;;;2.20;;
16153;SDS011;8182;55.648;13.208;2023-09-19T06:37:52;7.90;;;2.23;;
16153;SDS011;8182;55.648;13.208;2023-09-19T06:40:19;8.20;;;2.00;;
16153;SDS011;8182;55.648;13.208;2023-09-19T06:42:46;5.07;;;1.87;;
16153;SDS011;8182;55.648;13.208;2023-09-19T06:45:16;4.70;;;1.80;;
16153;SDS011;8182;55.648;13.208;2023-09-19T06:47:44;5.13;;;1.80;;
16153;SDS011;8182;55.648;13.208;2023-09-19T06:50:14;5.00;;;1.80;;
16153;SDS011;8182;55.648;13.208;2023-09-19T06:52:43;4.80;;;1.57;;
16153;SDS011;8182;55.648;13.208;2023-09-19T06:55:12;6.27;;;1.80;;
16153;SDS011;8182;55.648;13.208;2023-09-19T06:57:41;5.90;;;1.70;;
16153;SDS011;8182;55.648;13.208;2023-09-19T07:00:09;3.10;;;1.50;;
16153;SDS011;8182;55.648;13.208;2023-09-19T07:02:43;3.90;;;1.50;;
16153;SDS011;8182;55.648;13.208;2023-09-19T07:05:10;8.07;;;1.87;;
16153;SDS011;8182;55.648;13.208;2023-09-19T07:07:37;5.80;;;1.90;;
16153;SDS011;8182;55.648;13.208;2023-09-19T07:10:05;6.93;;;2.10;;
16153;SDS011;8182;55.648;13.208;2023-09-19T07:12:34;6.60;;;2.03;;
16153;SDS011;8182;55.648;13.208;2023-09-19T07:15:01;8.40;;;2.13;;
16153;SDS011;8182;55.648;13.208;2023-09-19T07:17:31;10.00;;;2.53;;
16153;SDS011;8182;55.648;13.208;2023-09-19T07:19:58;12.47;;;2.60;;
16153;SDS011;8182;55.648;13.208;2023-09-19T07:22:25;8.80;;;2.50;;
16153;SDS011;8182;55.648;13.208;2023-09-19T07:24:53;7.20;;;2.43;;
16153;SDS011;8182;55.648;13.208;2023-09-19T07:27:19;10.67;;;2.40;;
16153;SDS011;8182;55.648;13.208;2023-09-19T07:29:52;13.63;;;3.33;;
16153;SDS011;8182;55.648;13.208;2023-09-19T07:32:19;9.80;;;2.60;;
16153;SDS011;8182;55.648;13.208;2023-09-19T07:34:46;10.80;;;2.53;;
16153;SDS011;8182;55.648;13.208;2023-09-19T07:37:13;10.67;;;2.47;;
16153;SDS011;8182;55.648;13.208;2023-09-19T07:39:41;10.27;;;2.40;;
16153;SDS011;8182;55.648;13.208;2023-09-19T07:42:09;7.57;;;2.60;;
16153;SDS011;8182;55.648;13.208;2023-09-19T07:44:42;9.47;;;2.60;;
16153;SDS011;8182;55.648;13.208;2023-09-19T07:47:13;6.80;;;2.80;;
16153;SDS011;8182;55.648;13.208;2023-09-19T07:49:41;8.70;;;2.37;;
16153;SDS011;8182;55.648;13.208;2023-09-19T07:52:08;13.00;;;3.07;;
16153;SDS011;8182;55.648;13.208;2023-09-19T07:54:35;11.73;;;3.63;;
16153;SDS011;8182;55.648;13.208;2023-09-19T07:57:04;8.60;;;2.50;;
16153;SDS011;8182;55.648;13.208;2023-09-19T07:59:31;9.70;;;2.47;;
16153;SDS011;8182;55.648;13.208;2023-09-19T08:01:58;13.37;;;2.87;;
16153;SDS011;8182;55.648;13.208;2023-09-19T08:04:27;8.77;;;2.47;;
16153;SDS011;8182;55.648;13.208;2023-09-19T08:06:55;8.03;;;2.53;;
16153;SDS011;8182;55.648;13.208;2023-09-19T08:09:23;7.90;;;2.37;;
16153;SDS011;8182;55.648;13.208;2023-09-19T08:11:50;9.27;;;2.90;;
16153;SDS011;8182;55.648;13.208;2023-09-19T08:14:17;10.43;;;2.30;;
16153;SDS011;8182;55.648;13.208;2023-09-19T08:16:44;8.77;;;2.50;;
16153;SDS011;8182;55.648;13.208;2023-09-19T08:19:12;7.20;;;2.63;;
16153;SDS011;8182;55.648;13.208;2023-09-19T08:21:41;12.23;;;3.20;;
16153;SDS011;8182;55.648;13.208;2023-09-19T08:24:11;10.77;;;2.70;;
16153;SDS011;8182;55.648;13.208;2023-09-19T08:26:39;11.47;;;2.90;;
16153;SDS011;8182;55.648;13.208;2023-09-19T08:29:06;13.20;;;2.63;;
16153;SDS011;8182;55.648;13.208;2023-09-19T08:31:37;8.10;;;2.60;;
16153;SDS011;8182;55.648;13.208;2023-09-19T08:34:04;14.67;;;3.37;;
16153;SDS011;8182;55.648;13.208;2023-09-19T08:36:34;8.80;;;2.50;;
16153;SDS011;8182;55.648;13.208;2023-09-19T08:39:04;11.60;;;2.90;;
16153;SDS011;8182;55.648;13.208;2023-09-19T08:41:31;8.93;;;2.40;;
16153;SDS011;8182;55.648;13.208;2023-09-19T08:43:58;10.83;;;2.90;;
16153;SDS011;8182;55.648;13.208;2023-09-19T08:46:26;10.00;;;2.60;;
16153;SDS011;8182;55.648;13.208;2023-09-19T08:48:58;8.60;;;2.77;;
16153;SDS011;8182;55.648;13.208;2023-09-19T08:51:30;13.57;;;2.57;;
16153;SDS011;8182;55.648;13.208;2023-09-19T08:54:07;12.87;;;2.70;;
16153;SDS011;8182;55.648;13.208;2023-09-19T08:56:41;7.17;;;2.20;;
16153;SDS011;8182;55.648;13.208;2023-09-19T08:59:10;6.10;;;1.80;;
16153;SDS011;8182;55.648;13.208;2023-09-19T09:01:38;8.53;;;2.03;;
16153;SDS011;8182;55.648;13.208;2023-09-19T09:04:07;12.53;;;2.70;;
16153;SDS011;8182;55.648;13.208;2023-09-19T09:06:38;5.07;;;1.63;;
16153;SDS011;8182;55.648;13.208;2023-09-19T09:09:07;6.20;;;1.40;;
16153;SDS011;8182;55.648;13.208;2023-09-19T09:11:35;6.43;;;1.40;;
16153;SDS011;8182;55.648;13.208;2023-09-19T09:14:05;4.30;;;1.10;;
16153;SDS011;8182;55.648;13.208;2023-09-19T09:16:33;6.13;;;1.20;;
16153;SDS011;8182;55.648;13.208;2023-09-19T09:19:00;7.87;;;1.67;;
16153;SDS011;8182;55.648;13.208;2023-09-19T09:21:27;7.07;;;1.80;;
16153;SDS011;8182;55.648;13.208;2023-09-19T09:23:54;8.57;;;1.80;;
16153;SDS011;8182;55.648;13.208;2023-09-19T09:29:12;6.90;;;1.80;;
16153;SDS011;8182;55.648;13.208;2023-09-19T09:31:40;6.83;;;2.07;;
16153;SDS011;8182;55.648;13.208;2023-09-19T09:34:07;9.17;;;1.93;;
16153;SDS011;8182;55.648;13.208;2023-09-19T09:36:39;7.10;;;2.13;;
16153;SDS011;8182;55.648;13.208;2023-09-19T09:39:07;6.77;;;2.17;;
16153;SDS011;8182;55.648;13.208;2023-09-19T09:41:44;4.43;;;1.50;;
16153;SDS011;8182;55.648;13.208;2023-09-19T09:44:14;4.00;;;1.50;;
16153;SDS011;8182;55.648;13.208;2023-09-19T09:46:43;6.83;;;1.90;;
16153;SDS011;8182;55.648;13.208;2023-09-19T09:49:47;5.30;;;1.67;;
16153;SDS011;8182;55.648;13.208;2023-09-19T09:52:19;7.43;;;1.80;;
16153;SDS011;8182;55.648;13.208;2023-09-19T09:54:58;7.57;;;1.90;;
16153;SDS011;8182;55.648;13.208;2023-09-19T09:57:28;4.93;;;1.40;;
16153;SDS011;8182;55.648;13.208;2023-09-19T09:59:55;5.70;;;1.77;;
16153;SDS011;8182;55.648;13.208;2023-09-19T10:02:25;4.97;;;1.60;;
16153;SDS011;8182;55.648;13.208;2023-09-19T10:05:03;5.37;;;1.63;;
16153;SDS011;8182;55.648;13.208;2023-09-19T10:07:47;7.20;;;1.67;;
16153;SDS011;8182;55.648;13.208;2023-09-19T10:10:28;4.47;;;1.77;;
16153;SDS011;8182;55.648;13.208;2023-09-19T10:13:20;5.83;;;1.50;;
16153;SDS011;8182;55.648;13.208;2023-09-19T10:15:49;7.07;;;2.10;;
16153;SDS011;8182;55.648;13.208;2023-09-19T10:18:19;6.07;;;1.83;;
16153;SDS011;8182;55.648;13.208;2023-09-19T10:20:47;8.77;;;2.10;;
16153;SDS011;8182;55.648;13.208;2023-09-19T10:23:16;6.40;;;1.80;;
16153;SDS011;8182;55.648;13.208;2023-09-19T10:25:47;7.40;;;1.93;;
16153;SDS011;8182;55.648;13.208;2023-09-19T10:28:17;3.87;;;1.57;;
16153;SDS011;8182;55.648;13.208;2023-09-19T10:30:48;8.93;;;1.93;;
16153;SDS011;8182;55.648;13.208;2023-09-19T10:33:17;5.93;;;1.60;;
16153;SDS011;8182;55.648;13.208;2023-09-19T10:35:46;5.43;;;1.80;;
16153;SDS011;8182;55.648;13.208;2023-09-19T10:38:14;3.43;;;1.43;;
16153;SDS011;8182;55.648;13.208;2023-09-19T10:40:48;4.80;;;1.63;;
16153;SDS011;8182;55.648;13.208;2023-09-19T10:43:17;4.80;;;1.67;;
16153;SDS011;8182;55.648;13.208;2023-09-19T10:45:46;6.33;;;2.00;;
16153;SDS011;8182;55.648;13.208;2023-09-19T10:48:17;7.10;;;2.20;;
16153;SDS011;8182;55.648;13.208;2023-09-19T10:50:48;6.00;;;2.30;;
16153;SDS011;8182;55.648;13.208;2023-09-19T10:53:24;6.87;;;2.30;;
16153;SDS011;8182;55.648;13.208;2023-09-19T10:55:53;7.87;;;2.13;;
16153;SDS011;8182;55.648;13.208;2023-09-19T10:58:25;5.87;;;1.67;;
16153;SDS011;8182;55.648;13.208;2023-09-19T11:00:55;6.17;;;1.83;;
16153;SDS011;8182;55.648;13.208;2023-09-19T11:03:30;7.40;;;1.80;;
16153;SDS011;8182;55.648;13.208;2023-09-19T11:06:05;6.23;;;1.83;;
16153;SDS011;8182;55.648;13.208;2023-09-19T11:08:51;5.03;;;1.93;;
16153;SDS011;8182;55.648;13.208;2023-09-19T11:14:39;6.77;;;2.40;;
16153;SDS011;8182;55.648;13.208;2023-09-19T11:20:23;7.07;;;2.30;;
16153;SDS011;8182;55.648;13.208;2023-09-19T11:25:51;6.30;;;2.20;;
16153;SDS011;8182;55.648;13.208;2023-09-19T11:28:29;5.53;;;1.80;;
16153;SDS011;8182;55.648;13.208;2023-09-19T11:40:27;6.53;;;1.83;;
16153;SDS011;8182;55.648;13.208;2023-09-19T11:42:55;8.23;;;1.87;;
16153;SDS011;8182;55.648;13.208;2023-09-19T11:48:27;10.10;;;2.27;;
16153;SDS011;8182;55.648;13.208;2023-09-19T11:50:57;6.63;;;1.80;;
16153;SDS011;8182;55.648;13.208;2023-09-19T11:53:24;9.10;;;2.43;;
16153;SDS011;8182;55.648;13.208;2023-09-19T11:56:01;9.37;;;1.73;;
16153;SDS011;8182;55.648;13.208;2023-09-19T11:58:32;6.20;;;1.70;;
16153;SDS011;8182;55.648;13.208;2023-09-19T12:00:59;5.47;;;1.70;;
16153;SDS011;8182;55.648;13.208;2023-09-19T12:03:34;5.90;;;1.60;;
16153;SDS011;8182;55.648;13.208;2023-09-19T12:06:11;7.60;;;1.80;;
16153;SDS011;8182;55.648;13.208;2023-09-19T12:08:40;7.83;;;1.70;;
16153;SDS011;8182;55.648;13.208;2023-09-19T12:11:11;4.17;;;1.53;;
16153;SDS011;8182;55.648;13.208;2023-09-19T12:13:41;4.93;;;1.47;;
16153;SDS011;8182;55.648;13.208;2023-09-19T12:16:13;6.93;;;1.60;;
16153;SDS011;8182;55.648;13.208;2023-09-19T12:18:41;5.73;;;1.80;;
16153;SDS011;8182;55.648;13.208;2023-09-19T12:21:22;8.67;;;1.87;;
16153;SDS011;8182;55.648;13.208;2023-09-19T12:26:45;8.70;;;1.80;;
16153;SDS011;8182;55.648;13.208;2023-09-19T12:29:17;8.50;;;1.77;;
16153;SDS011;8182;55.648;13.208;2023-09-19T12:31:48;11.07;;;2.00;;
16153;SDS011;8182;55.648;13.208;2023-09-19T12:34:17;6.53;;;2.20;;
16153;SDS011;8182;55.648;13.208;2023-09-19T12:36:48;9.03;;;2.60;;
16153;SDS011;8182;55.648;13.208;2023-09-19T12:39:24;6.83;;;2.50;;
16153;SDS011;8182;55.648;13.208;2023-09-19T12:41:52;6.27;;;2.40;;
16153;SDS011;8182;55.648;13.208;2023-09-19T12:44:19;9.23;;;2.53;;
16153;SDS011;8182;55.648;13.208;2023-09-19T12:46:50;11.10;;;2.70;;
16153;SDS011;8182;55.648;13.208;2023-09-19T12:49:20;7.77;;;2.37;;
16153;SDS011;8182;55.648;13.208;2023-09-19T12:51:49;6.33;;;2.03;;
16153;SDS011;8182;55.648;13.208;2023-09-19T12:54:23;8.13;;;2.27;;
16153;SDS011;8182;55.648;13.208;2023-09-19T12:56:51;6.43;;;2.03;;
16153;SDS011;8182;55.648;13.208;2023-09-19T12:59:19;6.60;;;2.03;;
16153;SDS011;8182;55.648;13.208;2023-09-19T13:02:03;8.13;;;2.57;;
16153;SDS011;8182;55.648;13.208;2023-09-19T13:04:32;7.63;;;2.50;;
16153;SDS011;8182;55.648;13.208;2023-09-19T13:07:06;6.07;;;2.50;;
16153;SDS011;8182;55.648;13.208;2023-09-19T13:09:34;7.63;;;2.97;;
16153;SDS011;8182;55.648;13.208;2023-09-19T13:12:03;7.27;;;2.60;;
16153;SDS011;8182;55.648;13.208;2023-09-19T13:14:32;7.90;;;2.70;;
16153;SDS011;8182;55.648;13.208;2023-09-19T13:17:05;7.90;;;2.37;;
16153;SDS011;8182;55.648;13.208;2023-09-19T13:19:41;5.47;;;2.40;;
16153;SDS011;8182;55.648;13.208;2023-09-19T13:25:05;5.80;;;1.80;;
16153;SDS011;8182;55.648;13.208;2023-09-19T13:27:38;9.23;;;2.13;;
16153;SDS011;8182;55.648;13.208;2023-09-19T13:30:07;4.10;;;1.90;;
16153;SDS011;8182;55.648;13.208;2023-09-19T13:32:35;5.53;;;2.23;;
16153;SDS011;8182;55.648;13.208;2023-09-19T13:35:05;4.87;;;2.00;;
16153;SDS011;8182;55.648;13.208;2023-09-19T13:37:34;6.80;;;2.33;;
16153;SDS011;8182;55.648;13.208;2023-09-19T13:40:05;3.90;;;1.70;;
16153;SDS011;8182;55.648;13.208;2023-09-19T13:42:33;6.87;;;2.13;;
16153;SDS011;8182;55.648;13.208;2023-09-19T13:45:01;6.00;;;2.00;;
16153;SDS011;8182;55.648;13.208;2023-09-19T13:47:29;7.17;;;2.20;;
16153;SDS011;8182;55.648;13.208;2023-09-19T13:49:57;10.30;;;2.07;;
16153;SDS011;8182;55.648;13.208;2023-09-19T13:52:29;5.17;;;1.83;;
16153;SDS011;8182;55.648;13.208;2023-09-19T13:54:56;6.10;;;2.00;;
16153;SDS011;8182;55.648;13.208;2023-09-19T13:57:24;8.83;;;2.50;;
16153;SDS011;8182;55.648;13.208;2023-09-19T13:59:51;5.90;;;2.07;;
16153;SDS011;8182;55.648;13.208;2023-09-19T14:02:19;4.97;;;1.73;;
16153;SDS011;8182;55.648;13.208;2023-09-19T14:04:47;5.70;;;1.90;;
16153;SDS011;8182;55.648;13.208;2023-09-19T14:07:14;6.77;;;2.13;;
16153;SDS011;8182;55.648;13.208;2023-09-19T14:09:42;8.73;;;2.90;;
16153;SDS011;8182;55.648;13.208;2023-09-19T14:12:10;6.80;;;2.37;;
16153;SDS011;8182;55.648;13.208;2023-09-19T14:14:39;9.50;;;2.37;;
16153;SDS011;8182;55.648;13.208;2023-09-19T14:17:06;7.70;;;2.33;;
16153;SDS011;8182;55.648;13.208;2023-09-19T14:19:34;8.23;;;2.30;;
16153;SDS011;8182;55.648;13.208;2023-09-19T14:22:01;8.23;;;2.60;;
16153;SDS011;8182;55.648;13.208;2023-09-19T14:24:36;7.00;;;2.10;;
16153;SDS011;8182;55.648;13.208;2023-09-19T14:27:04;8.13;;;2.30;;
16153;SDS011;8182;55.648;13.208;2023-09-19T14:29:34;8.63;;;2.57;;
16153;SDS011;8182;55.648;13.208;2023-09-19T14:32:02;5.93;;;2.17;;
16153;SDS011;8182;55.648;13.208;2023-09-19T14:34:30;7.90;;;2.50;;
16153;SDS011;8182;55.648;13.208;2023-09-19T14:36:58;6.80;;;2.13;;
16153;SDS011;8182;55.648;13.208;2023-09-19T14:39:25;7.13;;;2.60;;
16153;SDS011;8182;55.648;13.208;2023-09-19T14:41:52;7.90;;;2.57;;
16153;SDS011;8182;55.648;13.208;2023-09-19T14:44:19;7.70;;;2.20;;
16153;SDS011;8182;55.648;13.208;2023-09-19T14:46:46;8.20;;;2.40;;
16153;SDS011;8182;55.648;13.208;2023-09-19T14:49:14;8.73;;;2.10;;
16153;SDS011;8182;55.648;13.208;2023-09-19T14:51:42;7.20;;;2.40;;
16153;SDS011;8182;55.648;13.208;2023-09-19T14:54:09;8.27;;;2.43;;
16153;SDS011;8182;55.648;13.208;2023-09-19T14:56:36;9.13;;;2.47;;
16153;SDS011;8182;55.648;13.208;2023-09-19T14:59:03;9.80;;;2.37;;
16153;SDS011;8182;55.648;13.208;2023-09-19T15:01:30;7.43;;;2.30;;
16153;SDS011;8182;55.648;13.208;2023-09-19T15:03:57;7.53;;;2.40;;
16153;SDS011;8182;55.648;13.208;2023-09-19T15:06:27;8.90;;;2.53;;
16153;SDS011;8182;55.648;13.208;2023-09-19T15:08:54;11.07;;;2.40;;
16153;SDS011;8182;55.648;13.208;2023-09-19T15:11:22;8.97;;;2.00;;
16153;SDS011;8182;55.648;13.208;2023-09-19T15:13:51;4.77;;;2.00;;
16153;SDS011;8182;55.648;13.208;2023-09-19T15:16:19;13.83;;;3.17;;
16153;SDS011;8182;55.648;13.208;2023-09-19T15:18:46;9.50;;;2.30;;
16153;SDS011;8182;55.648;13.208;2023-09-19T15:21:13;7.30;;;2.50;;
16153;SDS011;8182;55.648;13.208;2023-09-19T15:23:42;7.20;;;2.23;;
16153;SDS011;8182;55.648;13.208;2023-09-19T15:26:12;7.40;;;2.63;;
16153;SDS011;8182;55.648;13.208;2023-09-19T15:28:42;6.10;;;2.10;;
16153;SDS011;8182;55.648;13.208;2023-09-19T15:31:10;5.87;;;1.90;;